Dauphin Airport, Manitoba

Past 24 Hour Conditions

This table is a summary of hourly weather conditions for the past 24 hours. This summary includes the following parameters: temperature, humidity, dew point, wind speed and direction, air pressure, visibility and/or wind chill and humidex.
Date / Time
(CDT)
Conditions Temp (°F) Humidity (%) Dew Point (°F) Wind (mph) Pressure (inches) Visibility (miles)
22 September 2014
5:00 Clear 56 62 43 WSW 9 30.0 10
4:00 Clear 55 65 44 WSW 8 30.0 10
3:00 Clear 56 64 44 WSW 8 30.0 10
2:00 Clear 55 68 45 WSW 6 30.0 10
1:00 Clear 58 60 44 WSW 9 30.0 10
00:00 Clear 59 59 44 WSW 9 30.0 10
21 September 2014
23:00 Clear 58 60 44 SW 7 30.1 10
22:00 Clear 59 61 45 SW 10 30.1 10
21:00 Clear 59 63 46 SW 8 30.1 10
20:00 Clear 60 66 48 SW 8 30.1 10
19:00 Sunny 67 49 47 WSW 8 30.1 10
18:00 Sunny 71   41 46 WNW 10 30.1 10
17:00 Sunny 71   43 47 W 10 gust 20 30.1 10
16:00 Sunny 71   42 47 W 14 30.1 10
15:00 Sunny 70 45 48 W 13 gust 20 30.2 10
14:00 Sunny 68 50 49 W 11 gust 21 30.2 10
13:00 Sunny 65 57 50 WSW 13 30.2 10
12:00 Sunny 62 61 49 W 13 30.2 10
11:00 Sunny 59 69 49 WNW 6 30.2 10
10:00 Sunny 56 77 49 WNW 9 30.2 10
9:00 Sunny 51 85 47 WSW 9 30.2 10
8:00 Cloudy 49   89 46 W 10 30.2 10
7:00 Mostly Cloudy 49   92 47 W 8 30.2 10
6:00 Cloudy 51 90 48 W 7 30.2 10
5:00 Cloudy 51 90 48 W 9 30.2 10
N/A
Not available
 ↑ 
Highest temperature
 ↓ 
Lowest temperature

If you require additional historical weather information, please visit Climate Data Online.